createdAt,value
2019-02-17T00:02:50.583Z,19.40
2019-02-17T00:07:54.130Z,21.37
2019-02-17T00:18:41.911Z,16.07
2019-02-17T00:23:44.424Z,16.67
2019-02-17T00:28:47.023Z,19.40
2019-02-17T00:33:57.100Z,16.10
2019-02-17T00:39:09.240Z,18.27
2019-02-17T00:44:15.364Z,16.57
2019-02-17T00:49:18.113Z,16.97
2019-02-17T00:54:20.668Z,15.77
2019-02-17T01:05:10.019Z,16.73
2019-02-17T01:10:12.831Z,17.60
2019-02-17T01:15:15.631Z,15.37
2019-02-17T01:26:05.024Z,15.13
2019-02-17T01:31:08.594Z,16.57
2019-02-17T01:36:11.352Z,17.07
2019-02-17T01:41:14.350Z,17.03
2019-02-17T01:46:17.185Z,16.80
2019-02-17T01:51:19.956Z,16.53
2019-02-17T01:56:22.379Z,18.03
2019-02-17T02:01:25.007Z,16.63
2019-02-17T02:06:27.820Z,17.27
2019-02-17T02:11:39.213Z,16.87
2019-02-17T02:16:44.117Z,17.03
2019-02-17T02:21:46.981Z,17.00
2019-02-17T02:26:53.700Z,18.00
2019-02-17T02:31:57.073Z,16.77
2019-02-17T02:37:00.899Z,17.23
2019-02-17T02:42:03.665Z,17.50
2019-02-17T02:47:06.339Z,15.90
2019-02-17T02:52:09.550Z,15.13
2019-02-17T02:57:12.073Z,16.63
2019-02-17T03:02:14.748Z,17.33
2019-02-17T03:07:19.765Z,16.90
2019-02-17T03:18:03.064Z,14.73
2019-02-17T03:23:05.991Z,16.47
2019-02-17T03:28:08.832Z,16.03
2019-02-17T03:33:11.463Z,17.90
2019-02-17T03:38:14.271Z,15.77
2019-02-17T03:43:17.271Z,16.90
2019-02-17T03:48:20.019Z,17.57
2019-02-17T03:53:24.293Z,16.03
2019-02-17T03:58:26.849Z,15.70
2019-02-17T04:03:30.959Z,13.87
2019-02-17T04:08:33.616Z,12.37
2019-02-17T04:13:38.423Z,15.27
2019-02-17T04:18:41.483Z,13.97
2019-02-17T04:23:44.128Z,14.37
2019-02-17T04:28:54.677Z,14.57
2019-02-17T04:33:57.750Z,11.73
2019-02-17T04:39:00.385Z,13.33
2019-02-17T04:44:03.189Z,14.37
2019-02-17T04:49:05.965Z,13.67
2019-02-17T04:54:08.909Z,13.53
2019-02-17T04:59:11.681Z,14.50
2019-02-17T05:04:15.240Z,15.77
2019-02-17T05:09:17.918Z,14.97
2019-02-17T05:14:20.690Z,14.37
2019-02-17T05:19:23.913Z,14.70
2019-02-17T05:24:52.830Z,15.80
2019-02-17T05:29:56.130Z,15.17
2019-02-17T05:35:02.990Z,16.30
2019-02-17T05:40:05.956Z,14.17
2019-02-17T05:45:08.683Z,15.23
2019-02-17T05:50:11.955Z,14.90
2019-02-17T05:55:14.789Z,16.07
2019-02-17T06:00:31.301Z,15.57
2019-02-17T06:05:35.007Z,15.03
2019-02-17T06:10:38.157Z,14.73
2019-02-17T06:15:41.430Z,11.53
2019-02-17T06:20:44.746Z,15.17
2019-02-17T06:25:49.627Z,13.80
2019-02-17T06:30:53.324Z,14.93
2019-02-17T06:35:56.654Z,16.60
2019-02-17T06:40:59.431Z,15.20
2019-02-17T06:46:02.270Z,15.17
2019-02-17T06:51:05.234Z,10.90
2019-02-17T06:56:17.779Z,18.70
2019-02-17T07:01:24.565Z,18.10
2019-02-17T07:06:31.136Z,16.33
2019-02-17T07:11:33.973Z,15.63
2019-02-17T07:16:37.103Z,17.60
2019-02-17T07:21:40.915Z,17.13
2019-02-17T07:26:43.706Z,17.90
2019-02-17T07:31:46.577Z,18.57
2019-02-17T07:36:49.128Z,20.53
2019-02-17T07:41:51.875Z,26.03
2019-02-17T07:46:58.583Z,23.77
2019-02-17T07:52:09.732Z,23.43
2019-02-17T07:57:13.330Z,19.57
2019-02-17T08:02:16.119Z,26.23
2019-02-17T08:07:19.400Z,23.67
2019-02-17T08:12:30.781Z,25.03
2019-02-17T08:17:34.187Z,20.97
2019-02-17T08:22:37.528Z,22.70
2019-02-17T08:27:47.408Z,22.13
2019-02-17T08:32:51.521Z,22.53
2019-02-17T08:38:06.958Z,23.43
2019-02-17T08:43:15.504Z,25.27
2019-02-17T08:48:18.423Z,23.23
2019-02-17T08:53:22.171Z,24.27
2019-02-17T08:58:31.489Z,24.47
2019-02-17T09:03:42.445Z,21.67
2019-02-17T09:14:10.228Z,18.47
2019-02-17T09:19:19.461Z,18.40
2019-02-17T09:24:34.766Z,17.53
2019-02-17T09:29:50.376Z,16.90
2019-02-17T09:40:41.499Z,16.30
2019-02-17T09:45:44.899Z,16.63
2019-02-17T09:50:47.484Z,15.60
2019-02-17T09:55:55.128Z,15.23
2019-02-17T10:01:00.010Z,15.70
2019-02-17T10:06:04.828Z,13.80
2019-02-17T10:11:07.427Z,15.30
2019-02-17T10:16:10.290Z,14.23
2019-02-17T10:21:34.878Z,14.43
2019-02-17T10:26:37.793Z,13.93
2019-02-17T10:31:40.417Z,14.33
2019-02-17T10:36:42.996Z,13.77
2019-02-17T10:41:45.580Z,13.00
2019-02-17T10:46:48.892Z,13.83
2019-02-17T10:51:51.550Z,14.90
2019-02-17T10:56:54.259Z,12.47
2019-02-17T11:01:57.491Z,12.47
2019-02-17T11:07:00.120Z,12.10
2019-02-17T11:12:03.851Z,13.30
2019-02-17T11:17:06.584Z,11.53
2019-02-17T11:22:09.313Z,11.87
2019-02-17T11:27:12.402Z,11.80
2019-02-17T11:32:15.833Z,11.67
2019-02-17T11:37:18.698Z,11.77
2019-02-17T11:42:22.516Z,11.37
2019-02-17T11:47:25.302Z,12.03
2019-02-17T11:52:58.685Z,10.67
2019-02-17T11:58:03.371Z,11.13
2019-02-17T12:14:42.227Z,9.53
2019-02-17T12:19:45.081Z,9.43
2019-02-17T12:25:12.960Z,9.23
2019-02-17T12:30:23.332Z,9.27
2019-02-17T12:35:26.436Z,9.13
2019-02-17T12:46:12.600Z,8.00
2019-02-17T12:51:15.390Z,9.07
2019-02-17T12:56:37.768Z,8.50
2019-02-17T13:01:40.790Z,9.17
2019-02-17T13:06:43.839Z,8.93
2019-02-17T13:11:52.789Z,7.63
2019-02-17T13:17:10.899Z,8.73
2019-02-17T13:22:13.707Z,7.97
2019-02-17T13:27:16.860Z,8.37
2019-02-17T13:32:19.692Z,7.93
2019-02-17T13:43:08.334Z,8.53
2019-02-17T13:48:12.509Z,10.73
2019-02-17T13:59:03.222Z,8.90
2019-02-17T14:04:06.805Z,9.17
2019-02-17T14:15:04.933Z,8.87
2019-02-17T14:20:08.599Z,9.50
2019-02-17T14:25:11.536Z,9.93
2019-02-17T14:48:19.184Z,9.07
2019-02-17T15:05:30.784Z,8.80
2019-02-17T15:10:35.927Z,9.33
2019-02-17T15:15:38.750Z,9.20
2019-02-17T15:20:41.637Z,8.83
2019-02-17T15:25:53.781Z,7.60
2019-02-17T15:42:50.309Z,7.90
2019-02-17T15:48:16.035Z,8.70
2019-02-17T16:17:26.139Z,8.00
2019-02-17T16:22:35.414Z,9.03
2019-02-17T16:33:44.467Z,9.10
2019-02-17T16:38:47.099Z,10.10
2019-02-17T16:43:49.751Z,9.83
2019-02-17T16:48:54.475Z,11.00
2019-02-17T16:54:07.545Z,10.30
2019-02-17T16:59:11.822Z,10.80
2019-02-17T17:04:18.953Z,10.80
2019-02-17T17:09:53.172Z,11.27
2019-02-17T17:15:13.045Z,11.73
2019-02-17T17:20:38.375Z,11.40
2019-02-17T17:31:42.107Z,12.20
2019-02-17T17:36:49.678Z,11.83
2019-02-17T17:41:58.200Z,12.83
2019-02-17T17:53:03.673Z,12.50
2019-02-17T17:58:24.794Z,10.77
2019-02-17T18:03:27.450Z,12.07
2019-02-17T18:08:48.525Z,12.57
2019-02-17T18:13:52.085Z,14.23
2019-02-17T18:18:54.713Z,15.10
2019-02-17T18:24:03.843Z,13.90
2019-02-17T18:47:14.300Z,13.10
2019-02-17T18:52:30.353Z,13.47
2019-02-17T18:57:50.153Z,14.00
2019-02-17T19:03:09.652Z,13.43
2019-02-17T19:08:12.200Z,13.97
2019-02-17T19:31:22.146Z,14.73
2019-02-17T19:59:18.837Z,14.80
2019-02-17T20:04:38.525Z,15.57
2019-02-17T20:16:17.466Z,15.80
2019-02-17T20:21:35.777Z,16.93
2019-02-17T20:44:11.292Z,15.03
2019-02-17T21:41:08.784Z,14.73
2019-02-17T21:57:20.622Z,16.00
2019-02-17T22:02:23.546Z,15.17
2019-02-17T22:13:31.492Z,14.87
2019-02-17T22:18:35.574Z,13.57
2019-02-17T22:23:39.898Z,14.93
2019-02-17T22:34:31.101Z,16.33
2019-02-17T22:39:33.675Z,16.10
2019-02-17T22:44:36.756Z,14.93
2019-02-17T22:49:39.800Z,13.80
2019-02-17T22:54:42.413Z,14.20
2019-02-17T22:59:44.997Z,15.77
2019-02-17T23:04:47.501Z,14.53
2019-02-17T23:09:50.136Z,15.53
2019-02-17T23:14:52.739Z,13.70
2019-02-17T23:19:55.471Z,13.10
2019-02-17T23:24:58.132Z,14.10
2019-02-17T23:30:00.763Z,15.17
2019-02-17T23:35:04.174Z,15.57
2019-02-17T23:40:06.941Z,14.43
2019-02-17T23:45:09.627Z,15.27
2019-02-17T23:50:12.307Z,14.43
2019-02-17T23:55:15.239Z,11.53
